sensor_id;sensor_type;location;lat;lon;timestamp;P1;durP1;ratioP1;P2;durP2;ratioP2
28623;SDS011;15813;46.932;19.658;2022-11-15T00:01:00;36.70;;;18.87;;
28623;SDS011;15813;46.932;19.658;2022-11-15T00:03:26;37.88;;;19.73;;
28623;SDS011;15813;46.932;19.658;2022-11-15T00:05:51;35.67;;;19.42;;
28623;SDS011;15813;46.932;19.658;2022-11-15T00:08:17;38.03;;;20.23;;
28623;SDS011;15813;46.932;19.658;2022-11-15T00:10:42;47.28;;;20.27;;
28623;SDS011;15813;46.932;19.658;2022-11-15T00:13:09;37.17;;;19.42;;
28623;SDS011;15813;46.932;19.658;2022-11-15T00:15:35;33.35;;;19.27;;
28623;SDS011;15813;46.932;19.658;2022-11-15T00:18:01;52.58;;;20.77;;
28623;SDS011;15813;46.932;19.658;2022-11-15T00:20:26;33.75;;;18.17;;
28623;SDS011;15813;46.932;19.658;2022-11-15T00:22:51;34.90;;;18.60;;
28623;SDS011;15813;46.932;19.658;2022-11-15T00:25:16;43.40;;;19.63;;
28623;SDS011;15813;46.932;19.658;2022-11-15T00:27:42;45.40;;;20.42;;
28623;SDS011;15813;46.932;19.658;2022-11-15T00:30:07;35.40;;;18.15;;
28623;SDS011;15813;46.932;19.658;2022-11-15T00:32:32;43.45;;;21.52;;
28623;SDS011;15813;46.932;19.658;2022-11-15T00:34:58;41.88;;;21.40;;
28623;SDS011;15813;46.932;19.658;2022-11-15T00:37:23;35.05;;;19.88;;
28623;SDS011;15813;46.932;19.658;2022-11-15T00:39:48;38.45;;;19.35;;
28623;SDS011;15813;46.932;19.658;2022-11-15T00:42:14;38.92;;;19.77;;
28623;SDS011;15813;46.932;19.658;2022-11-15T00:44:39;35.95;;;18.73;;
28623;SDS011;15813;46.932;19.658;2022-11-15T00:47:04;34.40;;;19.35;;
28623;SDS011;15813;46.932;19.658;2022-11-15T00:49:30;52.72;;;20.83;;
28623;SDS011;15813;46.932;19.658;2022-11-15T00:51:55;35.95;;;19.95;;
28623;SDS011;15813;46.932;19.658;2022-11-15T00:54:20;34.15;;;19.00;;
28623;SDS011;15813;46.932;19.658;2022-11-15T00:56:45;31.83;;;19.13;;
28623;SDS011;15813;46.932;19.658;2022-11-15T00:59:11;33.90;;;18.02;;
28623;SDS011;15813;46.932;19.658;2022-11-15T01:01:36;29.65;;;18.08;;
28623;SDS011;15813;46.932;19.658;2022-11-15T01:04:01;27.75;;;16.95;;
28623;SDS011;15813;46.932;19.658;2022-11-15T01:06:27;30.92;;;17.85;;
28623;SDS011;15813;46.932;19.658;2022-11-15T01:08:52;32.38;;;16.17;;
28623;SDS011;15813;46.932;19.658;2022-11-15T01:11:17;29.15;;;17.60;;
28623;SDS011;15813;46.932;19.658;2022-11-15T01:13:43;27.67;;;16.88;;
28623;SDS011;15813;46.932;19.658;2022-11-15T01:16:09;32.15;;;18.33;;
28623;SDS011;15813;46.932;19.658;2022-11-15T01:18:35;31.17;;;17.42;;
28623;SDS011;15813;46.932;19.658;2022-11-15T01:21:04;31.15;;;18.67;;
28623;SDS011;15813;46.932;19.658;2022-11-15T01:23:29;33.58;;;18.70;;
28623;SDS011;15813;46.932;19.658;2022-11-15T01:25:58;32.40;;;18.95;;
28623;SDS011;15813;46.932;19.658;2022-11-15T01:28:23;35.78;;;19.38;;
28623;SDS011;15813;46.932;19.658;2022-11-15T01:30:48;33.37;;;18.70;;
28623;SDS011;15813;46.932;19.658;2022-11-15T01:33:13;40.22;;;20.88;;
28623;SDS011;15813;46.932;19.658;2022-11-15T01:35:39;31.80;;;18.02;;
28623;SDS011;15813;46.932;19.658;2022-11-15T01:38:05;36.08;;;18.90;;
28623;SDS011;15813;46.932;19.658;2022-11-15T01:40:30;30.92;;;17.75;;
28623;SDS011;15813;46.932;19.658;2022-11-15T01:42:55;36.63;;;20.65;;
28623;SDS011;15813;46.932;19.658;2022-11-15T01:45:20;32.08;;;18.42;;
28623;SDS011;15813;46.932;19.658;2022-11-15T01:48:01;33.58;;;18.77;;
28623;SDS011;15813;46.932;19.658;2022-11-15T01:50:27;35.33;;;19.45;;
28623;SDS011;15813;46.932;19.658;2022-11-15T01:52:55;30.80;;;17.90;;
28623;SDS011;15813;46.932;19.658;2022-11-15T01:55:21;34.65;;;20.60;;
28623;SDS011;15813;46.932;19.658;2022-11-15T01:57:49;34.35;;;18.63;;
28623;SDS011;15813;46.932;19.658;2022-11-15T02:00:15;37.05;;;21.13;;
28623;SDS011;15813;46.932;19.658;2022-11-15T02:02:40;31.88;;;19.25;;
28623;SDS011;15813;46.932;19.658;2022-11-15T02:05:06;36.13;;;19.55;;
28623;SDS011;15813;46.932;19.658;2022-11-15T02:07:31;32.42;;;17.23;;
28623;SDS011;15813;46.932;19.658;2022-11-15T02:10:02;29.77;;;17.77;;
28623;SDS011;15813;46.932;19.658;2022-11-15T02:12:29;31.20;;;19.05;;
28623;SDS011;15813;46.932;19.658;2022-11-15T02:14:54;30.48;;;18.00;;
28623;SDS011;15813;46.932;19.658;2022-11-15T02:30:03;27.65;;;17.13;;
28623;SDS011;15813;46.932;19.658;2022-11-15T02:35:22;27.10;;;16.35;;
28623;SDS011;15813;46.932;19.658;2022-11-15T02:37:55;26.23;;;15.98;;
28623;SDS011;15813;46.932;19.658;2022-11-15T02:42:50;26.20;;;16.23;;
28623;SDS011;15813;46.932;19.658;2022-11-15T02:45:37;24.88;;;15.00;;
28623;SDS011;15813;46.932;19.658;2022-11-15T02:48:03;27.83;;;16.10;;
28623;SDS011;15813;46.932;19.658;2022-11-15T02:50:30;24.15;;;14.15;;
28623;SDS011;15813;46.932;19.658;2022-11-15T02:52:56;27.20;;;14.70;;
28623;SDS011;15813;46.932;19.658;2022-11-15T02:55:32;26.35;;;15.93;;
28623;SDS011;15813;46.932;19.658;2022-11-15T03:01:04;24.33;;;15.27;;
28623;SDS011;15813;46.932;19.658;2022-11-15T03:03:45;26.23;;;14.75;;
28623;SDS011;15813;46.932;19.658;2022-11-15T03:08:50;28.50;;;15.73;;
28623;SDS011;15813;46.932;19.658;2022-11-15T03:11:19;27.52;;;15.95;;
28623;SDS011;15813;46.932;19.658;2022-11-15T03:16:38;26.95;;;15.13;;
28623;SDS011;15813;46.932;19.658;2022-11-15T03:19:13;26.20;;;16.98;;
28623;SDS011;15813;46.932;19.658;2022-11-15T03:21:39;28.38;;;16.05;;
28623;SDS011;15813;46.932;19.658;2022-11-15T03:24:05;26.13;;;15.60;;
28623;SDS011;15813;46.932;19.658;2022-11-15T03:26:31;26.58;;;15.50;;
28623;SDS011;15813;46.932;19.658;2022-11-15T03:29:03;27.27;;;15.65;;
28623;SDS011;15813;46.932;19.658;2022-11-15T03:31:30;29.08;;;16.35;;
28623;SDS011;15813;46.932;19.658;2022-11-15T03:34:14;27.52;;;16.45;;
28623;SDS011;15813;46.932;19.658;2022-11-15T03:36:40;26.80;;;15.23;;
28623;SDS011;15813;46.932;19.658;2022-11-15T03:39:06;28.80;;;15.77;;
28623;SDS011;15813;46.932;19.658;2022-11-15T03:41:37;31.15;;;17.35;;
28623;SDS011;15813;46.932;19.658;2022-11-15T03:44:07;28.75;;;17.25;;
28623;SDS011;15813;46.932;19.658;2022-11-15T03:46:47;31.48;;;16.77;;
28623;SDS011;15813;46.932;19.658;2022-11-15T03:49:24;29.48;;;16.80;;
28623;SDS011;15813;46.932;19.658;2022-11-15T03:51:50;28.42;;;16.77;;
28623;SDS011;15813;46.932;19.658;2022-11-15T03:54:15;34.42;;;17.40;;
28623;SDS011;15813;46.932;19.658;2022-11-15T03:56:41;30.60;;;15.90;;
28623;SDS011;15813;46.932;19.658;2022-11-15T03:59:06;29.35;;;16.45;;
28623;SDS011;15813;46.932;19.658;2022-11-15T04:01:31;31.02;;;17.58;;
28623;SDS011;15813;46.932;19.658;2022-11-15T04:03:56;30.65;;;16.70;;
28623;SDS011;15813;46.932;19.658;2022-11-15T04:06:22;30.95;;;16.90;;
28623;SDS011;15813;46.932;19.658;2022-11-15T04:08:47;35.47;;;18.65;;
28623;SDS011;15813;46.932;19.658;2022-11-15T04:11:12;32.42;;;18.10;;
28623;SDS011;15813;46.932;19.658;2022-11-15T04:13:37;34.75;;;17.90;;
28623;SDS011;15813;46.932;19.658;2022-11-15T04:16:03;32.13;;;17.60;;
28623;SDS011;15813;46.932;19.658;2022-11-15T04:18:28;31.63;;;17.33;;
28623;SDS011;15813;46.932;19.658;2022-11-15T04:20:53;32.72;;;18.10;;
28623;SDS011;15813;46.932;19.658;2022-11-15T04:23:37;35.60;;;18.02;;
28623;SDS011;15813;46.932;19.658;2022-11-15T04:26:31;35.22;;;19.20;;
28623;SDS011;15813;46.932;19.658;2022-11-15T04:28:57;36.42;;;18.75;;
28623;SDS011;15813;46.932;19.658;2022-11-15T04:31:40;40.10;;;18.60;;
28623;SDS011;15813;46.932;19.658;2022-11-15T04:34:06;34.83;;;19.52;;
28623;SDS011;15813;46.932;19.658;2022-11-15T04:36:31;37.67;;;19.38;;
28623;SDS011;15813;46.932;19.658;2022-11-15T04:39:15;39.20;;;20.00;;
28623;SDS011;15813;46.932;19.658;2022-11-15T04:41:40;39.78;;;19.73;;
28623;SDS011;15813;46.932;19.658;2022-11-15T04:44:05;38.70;;;20.95;;
28623;SDS011;15813;46.932;19.658;2022-11-15T04:46:32;36.65;;;19.10;;
28623;SDS011;15813;46.932;19.658;2022-11-15T04:48:57;39.25;;;21.23;;
28623;SDS011;15813;46.932;19.658;2022-11-15T04:51:22;37.45;;;19.95;;
28623;SDS011;15813;46.932;19.658;2022-11-15T04:53:48;37.42;;;20.33;;
28623;SDS011;15813;46.932;19.658;2022-11-15T04:56:13;37.90;;;19.52;;
28623;SDS011;15813;46.932;19.658;2022-11-15T04:58:38;43.47;;;20.70;;
28623;SDS011;15813;46.932;19.658;2022-11-15T05:01:07;37.83;;;20.77;;
28623;SDS011;15813;46.932;19.658;2022-11-15T05:03:33;37.03;;;20.50;;
28623;SDS011;15813;46.932;19.658;2022-11-15T05:06:16;36.05;;;20.75;;
28623;SDS011;15813;46.932;19.658;2022-11-15T05:08:41;38.53;;;20.88;;
28623;SDS011;15813;46.932;19.658;2022-11-15T05:11:06;38.95;;;20.73;;
28623;SDS011;15813;46.932;19.658;2022-11-15T05:13:32;36.53;;;20.17;;
28623;SDS011;15813;46.932;19.658;2022-11-15T05:15:57;40.95;;;22.25;;
28623;SDS011;15813;46.932;19.658;2022-11-15T05:18:22;42.30;;;21.40;;
28623;SDS011;15813;46.932;19.658;2022-11-15T05:20:47;38.00;;;21.17;;
28623;SDS011;15813;46.932;19.658;2022-11-15T05:23:13;38.92;;;20.75;;
28623;SDS011;15813;46.932;19.658;2022-11-15T05:25:38;43.15;;;22.08;;
28623;SDS011;15813;46.932;19.658;2022-11-15T05:28:03;46.42;;;22.88;;
28623;SDS011;15813;46.932;19.658;2022-11-15T05:30:29;40.38;;;20.55;;
28623;SDS011;15813;46.932;19.658;2022-11-15T05:32:54;47.42;;;22.05;;
28623;SDS011;15813;46.932;19.658;2022-11-15T05:35:25;48.47;;;23.30;;
28623;SDS011;15813;46.932;19.658;2022-11-15T05:37:54;46.08;;;23.48;;
28623;SDS011;15813;46.932;19.658;2022-11-15T05:40:19;44.20;;;22.85;;
28623;SDS011;15813;46.932;19.658;2022-11-15T05:42:45;44.80;;;22.65;;
28623;SDS011;15813;46.932;19.658;2022-11-15T05:45:10;49.00;;;23.38;;
28623;SDS011;15813;46.932;19.658;2022-11-15T05:47:36;46.78;;;21.73;;
28623;SDS011;15813;46.932;19.658;2022-11-15T05:50:03;49.55;;;25.02;;
28623;SDS011;15813;46.932;19.658;2022-11-15T05:52:29;46.97;;;23.02;;
28623;SDS011;15813;46.932;19.658;2022-11-15T05:54:55;42.70;;;22.27;;
28623;SDS011;15813;46.932;19.658;2022-11-15T05:57:21;53.17;;;25.85;;
28623;SDS011;15813;46.932;19.658;2022-11-15T05:59:46;48.75;;;23.60;;
28623;SDS011;15813;46.932;19.658;2022-11-15T06:02:11;44.63;;;22.73;;
28623;SDS011;15813;46.932;19.658;2022-11-15T06:04:37;49.45;;;24.52;;
28623;SDS011;15813;46.932;19.658;2022-11-15T06:07:02;51.78;;;25.60;;
28623;SDS011;15813;46.932;19.658;2022-11-15T06:09:27;58.05;;;26.50;;
28623;SDS011;15813;46.932;19.658;2022-11-15T06:11:53;50.08;;;25.05;;
28623;SDS011;15813;46.932;19.658;2022-11-15T06:14:18;54.58;;;27.55;;
28623;SDS011;15813;46.932;19.658;2022-11-15T06:16:43;53.45;;;25.30;;
28623;SDS011;15813;46.932;19.658;2022-11-15T06:19:08;48.88;;;24.33;;
28623;SDS011;15813;46.932;19.658;2022-11-15T06:21:34;52.55;;;25.40;;
28623;SDS011;15813;46.932;19.658;2022-11-15T06:23:59;47.08;;;23.60;;
28623;SDS011;15813;46.932;19.658;2022-11-15T06:26:24;49.25;;;24.55;;
28623;SDS011;15813;46.932;19.658;2022-11-15T06:28:49;48.22;;;23.88;;
28623;SDS011;15813;46.932;19.658;2022-11-15T06:31:15;50.15;;;24.33;;
28623;SDS011;15813;46.932;19.658;2022-11-15T06:33:40;50.60;;;22.70;;
28623;SDS011;15813;46.932;19.658;2022-11-15T06:36:06;51.42;;;22.77;;
28623;SDS011;15813;46.932;19.658;2022-11-15T06:38:32;60.78;;;24.98;;
28623;SDS011;15813;46.932;19.658;2022-11-15T06:41:01;52.50;;;24.85;;
28623;SDS011;15813;46.932;19.658;2022-11-15T06:45:52;56.90;;;24.40;;
28623;SDS011;15813;46.932;19.658;2022-11-15T06:48:17;61.07;;;27.67;;
28623;SDS011;15813;46.932;19.658;2022-11-15T06:50:42;55.78;;;24.73;;
28623;SDS011;15813;46.932;19.658;2022-11-15T06:53:07;60.47;;;25.58;;
28623;SDS011;15813;46.932;19.658;2022-11-15T06:55:33;59.40;;;25.77;;
28623;SDS011;15813;46.932;19.658;2022-11-15T06:57:58;55.65;;;27.30;;
28623;SDS011;15813;46.932;19.658;2022-11-15T07:00:23;57.90;;;25.80;;
28623;SDS011;15813;46.932;19.658;2022-11-15T07:02:48;50.83;;;25.77;;
28623;SDS011;15813;46.932;19.658;2022-11-15T07:05:14;57.28;;;26.27;;
28623;SDS011;15813;46.932;19.658;2022-11-15T07:07:40;55.67;;;25.00;;
28623;SDS011;15813;46.932;19.658;2022-11-15T07:10:05;51.00;;;24.90;;
28623;SDS011;15813;46.932;19.658;2022-11-15T07:12:31;56.47;;;26.00;;
28623;SDS011;15813;46.932;19.658;2022-11-15T07:14:56;54.58;;;24.73;;
28623;SDS011;15813;46.932;19.658;2022-11-15T07:17:21;55.50;;;24.45;;
28623;SDS011;15813;46.932;19.658;2022-11-15T07:19:47;56.47;;;26.20;;
28623;SDS011;15813;46.932;19.658;2022-11-15T07:22:12;56.40;;;25.05;;
28623;SDS011;15813;46.932;19.658;2022-11-15T07:24:37;52.33;;;25.60;;
28623;SDS011;15813;46.932;19.658;2022-11-15T07:27:03;63.35;;;29.98;;
28623;SDS011;15813;46.932;19.658;2022-11-15T07:29:28;59.65;;;28.45;;
28623;SDS011;15813;46.932;19.658;2022-11-15T07:31:53;57.80;;;27.85;;
28623;SDS011;15813;46.932;19.658;2022-11-15T07:34:19;59.28;;;26.98;;
28623;SDS011;15813;46.932;19.658;2022-11-15T07:36:44;56.85;;;26.00;;
28623;SDS011;15813;46.932;19.658;2022-11-15T07:39:09;53.75;;;26.08;;
28623;SDS011;15813;46.932;19.658;2022-11-15T07:41:37;51.97;;;25.63;;
28623;SDS011;15813;46.932;19.658;2022-11-15T07:44:03;55.85;;;25.40;;
28623;SDS011;15813;46.932;19.658;2022-11-15T07:46:29;52.35;;;25.00;;
28623;SDS011;15813;46.932;19.658;2022-11-15T07:48:54;49.20;;;24.98;;
28623;SDS011;15813;46.932;19.658;2022-11-15T07:51:19;54.33;;;27.70;;
28623;SDS011;15813;46.932;19.658;2022-11-15T07:53:45;54.40;;;26.83;;
28623;SDS011;15813;46.932;19.658;2022-11-15T07:56:10;53.50;;;26.35;;
28623;SDS011;15813;46.932;19.658;2022-11-15T07:58:36;48.28;;;24.98;;
28623;SDS011;15813;46.932;19.658;2022-11-15T08:01:05;57.08;;;27.35;;
28623;SDS011;15813;46.932;19.658;2022-11-15T08:03:30;50.88;;;25.70;;
28623;SDS011;15813;46.932;19.658;2022-11-15T08:05:56;48.63;;;25.38;;
28623;SDS011;15813;46.932;19.658;2022-11-15T08:08:22;48.25;;;25.17;;
28623;SDS011;15813;46.932;19.658;2022-11-15T08:10:47;56.42;;;25.73;;
28623;SDS011;15813;46.932;19.658;2022-11-15T08:13:12;47.97;;;24.33;;
28623;SDS011;15813;46.932;19.658;2022-11-15T08:15:38;53.05;;;25.83;;
28623;SDS011;15813;46.932;19.658;2022-11-15T08:18:04;52.97;;;25.58;;
28623;SDS011;15813;46.932;19.658;2022-11-15T08:20:30;54.10;;;25.80;;
28623;SDS011;15813;46.932;19.658;2022-11-15T08:22:59;49.85;;;24.58;;
28623;SDS011;15813;46.932;19.658;2022-11-15T08:25:25;40.80;;;20.23;;
28623;SDS011;15813;46.932;19.658;2022-11-15T08:27:54;43.60;;;22.02;;
28623;SDS011;15813;46.932;19.658;2022-11-15T08:30:20;48.45;;;24.20;;
28623;SDS011;15813;46.932;19.658;2022-11-15T08:32:45;51.30;;;25.30;;
28623;SDS011;15813;46.932;19.658;2022-11-15T08:35:11;41.22;;;23.60;;
28623;SDS011;15813;46.932;19.658;2022-11-15T08:37:36;39.92;;;21.73;;
28623;SDS011;15813;46.932;19.658;2022-11-15T08:40:01;50.45;;;22.80;;
28623;SDS011;15813;46.932;19.658;2022-11-15T08:42:27;40.92;;;22.45;;
28623;SDS011;15813;46.932;19.658;2022-11-15T08:44:52;42.35;;;22.58;;
28623;SDS011;15813;46.932;19.658;2022-11-15T08:47:17;47.05;;;25.17;;
28623;SDS011;15813;46.932;19.658;2022-11-15T08:49:43;42.00;;;21.73;;
28623;SDS011;15813;46.932;19.658;2022-11-15T08:52:08;43.47;;;22.02;;
28623;SDS011;15813;46.932;19.658;2022-11-15T08:54:34;48.17;;;22.23;;
28623;SDS011;15813;46.932;19.658;2022-11-15T08:56:59;41.90;;;22.73;;
28623;SDS011;15813;46.932;19.658;2022-11-15T08:59:24;43.85;;;23.20;;
28623;SDS011;15813;46.932;19.658;2022-11-15T09:01:50;46.05;;;23.17;;
28623;SDS011;15813;46.932;19.658;2022-11-15T09:04:15;45.60;;;25.38;;
28623;SDS011;15813;46.932;19.658;2022-11-15T09:06:40;40.13;;;21.88;;
28623;SDS011;15813;46.932;19.658;2022-11-15T09:09:06;44.38;;;22.77;;
28623;SDS011;15813;46.932;19.658;2022-11-15T09:11:31;40.42;;;21.83;;
28623;SDS011;15813;46.932;19.658;2022-11-15T09:13:56;41.10;;;23.30;;
28623;SDS011;15813;46.932;19.658;2022-11-15T09:16:22;44.30;;;25.20;;
28623;SDS011;15813;46.932;19.658;2022-11-15T09:18:47;39.10;;;22.70;;
28623;SDS011;15813;46.932;19.658;2022-11-15T09:21:12;41.95;;;23.77;;
28623;SDS011;15813;46.932;19.658;2022-11-15T09:23:37;38.47;;;22.30;;
28623;SDS011;15813;46.932;19.658;2022-11-15T09:26:03;39.63;;;22.20;;
28623;SDS011;15813;46.932;19.658;2022-11-15T09:28:29;43.65;;;22.27;;
28623;SDS011;15813;46.932;19.658;2022-11-15T09:30:58;46.72;;;24.15;;
28623;SDS011;15813;46.932;19.658;2022-11-15T09:33:24;43.67;;;22.95;;
28623;SDS011;15813;46.932;19.658;2022-11-15T09:35:50;40.83;;;21.27;;
28623;SDS011;15813;46.932;19.658;2022-11-15T09:38:15;40.92;;;21.80;;
28623;SDS011;15813;46.932;19.658;2022-11-15T09:40:40;40.72;;;22.33;;
28623;SDS011;15813;46.932;19.658;2022-11-15T09:50:51;43.03;;;25.20;;
28623;SDS011;15813;46.932;19.658;2022-11-15T09:55:59;51.40;;;24.50;;
28623;SDS011;15813;46.932;19.658;2022-11-15T10:01:04;47.47;;;24.92;;
28623;SDS011;15813;46.932;19.658;2022-11-15T10:03:36;50.30;;;25.52;;
28623;SDS011;15813;46.932;19.658;2022-11-15T10:06:03;51.65;;;28.73;;
28623;SDS011;15813;46.932;19.658;2022-11-15T10:11:10;51.08;;;27.40;;
28623;SDS011;15813;46.932;19.658;2022-11-15T10:13:37;49.53;;;26.35;;
28623;SDS011;15813;46.932;19.658;2022-11-15T10:22:16;56.28;;;28.27;;
28623;SDS011;15813;46.932;19.658;2022-11-15T10:24:15;60.67;;;31.85;;
28623;SDS011;15813;46.932;19.658;2022-11-15T10:26:45;66.47;;;32.08;;
28623;SDS011;15813;46.932;19.658;2022-11-15T10:29:11;48.85;;;28.02;;
28623;SDS011;15813;46.932;19.658;2022-11-15T10:31:37;50.15;;;27.20;;
28623;SDS011;15813;46.932;19.658;2022-11-15T10:34:15;49.28;;;26.92;;
28623;SDS011;15813;46.932;19.658;2022-11-15T10:36:44;53.33;;;27.40;;
28623;SDS011;15813;46.932;19.658;2022-11-15T10:39:11;55.60;;;29.02;;
28623;SDS011;15813;46.932;19.658;2022-11-15T10:41:38;52.75;;;27.98;;
28623;SDS011;15813;46.932;19.658;2022-11-15T10:44:25;55.08;;;28.45;;
28623;SDS011;15813;46.932;19.658;2022-11-15T10:54:11;64.95;;;32.80;;
28623;SDS011;15813;46.932;19.658;2022-11-15T10:56:37;61.03;;;30.75;;
28623;SDS011;15813;46.932;19.658;2022-11-15T10:59:04;61.78;;;31.45;;
28623;SDS011;15813;46.932;19.658;2022-11-15T11:01:29;61.17;;;32.28;;
28623;SDS011;15813;46.932;19.658;2022-11-15T11:04:02;63.50;;;33.35;;
28623;SDS011;15813;46.932;19.658;2022-11-15T11:06:28;68.13;;;34.25;;
28623;SDS011;15813;46.932;19.658;2022-11-15T11:11:19;70.10;;;37.85;;
28623;SDS011;15813;46.932;19.658;2022-11-15T11:13:45;73.88;;;37.70;;
28623;SDS011;15813;46.932;19.658;2022-11-15T11:21:13;66.78;;;34.88;;
28623;SDS011;15813;46.932;19.658;2022-11-15T11:26:45;75.32;;;39.78;;
28623;SDS011;15813;46.932;19.658;2022-11-15T11:29:08;76.15;;;41.53;;
28623;SDS011;15813;46.932;19.658;2022-11-15T11:31:49;74.03;;;37.55;;
28623;SDS011;15813;46.932;19.658;2022-11-15T11:40:01;79.57;;;40.65;;
28623;SDS011;15813;46.932;19.658;2022-11-15T11:42:47;86.25;;;40.15;;
28623;SDS011;15813;46.932;19.658;2022-11-15T11:45:40;87.53;;;40.22;;
28623;SDS011;15813;46.932;19.658;2022-11-15T11:48:12;86.22;;;41.53;;
28623;SDS011;15813;46.932;19.658;2022-11-15T11:50:38;81.57;;;38.95;;
28623;SDS011;15813;46.932;19.658;2022-11-15T11:53:11;86.70;;;42.53;;
28623;SDS011;15813;46.932;19.658;2022-11-15T11:55:44;85.90;;;41.25;;
28623;SDS011;15813;46.932;19.658;2022-11-15T12:00:38;81.95;;;40.70;;
28623;SDS011;15813;46.932;19.658;2022-11-15T12:05:36;79.00;;;39.30;;
28623;SDS011;15813;46.932;19.658;2022-11-15T12:08:04;83.45;;;40.88;;
28623;SDS011;15813;46.932;19.658;2022-11-15T12:10:33;86.18;;;42.53;;
28623;SDS011;15813;46.932;19.658;2022-11-15T12:15:32;82.55;;;39.92;;
28623;SDS011;15813;46.932;19.658;2022-11-15T12:18:00;90.38;;;40.40;;
28623;SDS011;15813;46.932;19.658;2022-11-15T12:20:27;84.20;;;41.75;;
28623;SDS011;15813;46.932;19.658;2022-11-15T12:28:35;89.28;;;42.72;;
28623;SDS011;15813;46.932;19.658;2022-11-15T12:31:13;85.47;;;41.42;;
28623;SDS011;15813;46.932;19.658;2022-11-15T12:33:42;86.53;;;41.60;;
28623;SDS011;15813;46.932;19.658;2022-11-15T12:41:18;84.60;;;41.70;;
28623;SDS011;15813;46.932;19.658;2022-11-15T12:43:45;81.45;;;39.05;;
28623;SDS011;15813;46.932;19.658;2022-11-15T12:46:12;101.45;;;48.40;;
28623;SDS011;15813;46.932;19.658;2022-11-15T12:51:03;84.50;;;42.15;;
28623;SDS011;15813;46.932;19.658;2022-11-15T12:53:29;94.47;;;43.47;;
28623;SDS011;15813;46.932;19.658;2022-11-15T12:58:43;81.53;;;39.97;;
28623;SDS011;15813;46.932;19.658;2022-11-15T13:01:12;84.00;;;40.58;;
28623;SDS011;15813;46.932;19.658;2022-11-15T13:06:46;89.95;;;38.97;;
28623;SDS011;15813;46.932;19.658;2022-11-15T13:11:56;85.82;;;41.22;;
28623;SDS011;15813;46.932;19.658;2022-11-15T13:22:18;92.38;;;43.28;;
28623;SDS011;15813;46.932;19.658;2022-11-15T13:25:02;93.78;;;42.72;;
28623;SDS011;15813;46.932;19.658;2022-11-15T13:27:27;82.50;;;40.85;;
28623;SDS011;15813;46.932;19.658;2022-11-15T13:29:53;98.43;;;43.25;;
28623;SDS011;15813;46.932;19.658;2022-11-15T13:32:18;91.47;;;44.53;;
28623;SDS011;15813;46.932;19.658;2022-11-15T13:34:45;96.25;;;44.78;;
28623;SDS011;15813;46.932;19.658;2022-11-15T13:39:47;94.30;;;43.03;;
28623;SDS011;15813;46.932;19.658;2022-11-15T13:42:16;84.28;;;41.05;;
28623;SDS011;15813;46.932;19.658;2022-11-15T13:44:53;86.00;;;42.35;;
28623;SDS011;15813;46.932;19.658;2022-11-15T13:47:20;91.95;;;44.05;;
28623;SDS011;15813;46.932;19.658;2022-11-15T13:49:45;95.35;;;43.92;;
28623;SDS011;15813;46.932;19.658;2022-11-15T13:52:13;88.93;;;41.60;;
28623;SDS011;15813;46.932;19.658;2022-11-15T13:57:15;93.30;;;44.17;;
28623;SDS011;15813;46.932;19.658;2022-11-15T13:59:45;82.45;;;40.78;;
28623;SDS011;15813;46.932;19.658;2022-11-15T14:02:15;99.47;;;45.45;;
28623;SDS011;15813;46.932;19.658;2022-11-15T14:04:49;121.18;;;52.72;;
28623;SDS011;15813;46.932;19.658;2022-11-15T14:07:16;100.05;;;45.85;;
28623;SDS011;15813;46.932;19.658;2022-11-15T14:09:42;95.38;;;43.22;;
28623;SDS011;15813;46.932;19.658;2022-11-15T14:12:29;93.03;;;43.80;;
28623;SDS011;15813;46.932;19.658;2022-11-15T14:14:55;121.07;;;49.88;;
28623;SDS011;15813;46.932;19.658;2022-11-15T14:17:21;103.78;;;45.42;;
28623;SDS011;15813;46.932;19.658;2022-11-15T14:19:57;92.45;;;42.60;;
28623;SDS011;15813;46.932;19.658;2022-11-15T14:22:31;95.70;;;44.38;;
28623;SDS011;15813;46.932;19.658;2022-11-15T14:25:31;96.60;;;43.80;;
28623;SDS011;15813;46.932;19.658;2022-11-15T14:30:32;114.28;;;47.63;;
28623;SDS011;15813;46.932;19.658;2022-11-15T14:32:58;117.70;;;51.85;;
28623;SDS011;15813;46.932;19.658;2022-11-15T14:35:23;117.82;;;49.97;;
28623;SDS011;15813;46.932;19.658;2022-11-15T14:37:49;100.78;;;48.47;;
28623;SDS011;15813;46.932;19.658;2022-11-15T14:40:15;101.85;;;47.00;;
28623;SDS011;15813;46.932;19.658;2022-11-15T14:42:41;115.07;;;50.92;;
28623;SDS011;15813;46.932;19.658;2022-11-15T14:45:13;118.00;;;52.90;;
28623;SDS011;15813;46.932;19.658;2022-11-15T14:47:39;121.30;;;53.85;;
28623;SDS011;15813;46.932;19.658;2022-11-15T14:50:05;134.18;;;61.08;;
28623;SDS011;15813;46.932;19.658;2022-11-15T14:52:31;122.45;;;53.92;;
28623;SDS011;15813;46.932;19.658;2022-11-15T14:55:00;130.38;;;56.05;;
28623;SDS011;15813;46.932;19.658;2022-11-15T14:57:27;110.68;;;50.40;;
28623;SDS011;15813;46.932;19.658;2022-11-15T14:59:53;112.05;;;50.72;;
28623;SDS011;15813;46.932;19.658;2022-11-15T15:02:25;105.32;;;45.65;;
28623;SDS011;15813;46.932;19.658;2022-11-15T15:04:52;129.88;;;54.35;;
28623;SDS011;15813;46.932;19.658;2022-11-15T15:07:17;113.45;;;50.17;;
28623;SDS011;15813;46.932;19.658;2022-11-15T15:09:43;112.35;;;48.72;;
28623;SDS011;15813;46.932;19.658;2022-11-15T15:12:21;113.38;;;47.83;;
28623;SDS011;15813;46.932;19.658;2022-11-15T15:14:47;120.40;;;50.67;;
28623;SDS011;15813;46.932;19.658;2022-11-15T15:17:13;115.88;;;52.40;;
28623;SDS011;15813;46.932;19.658;2022-11-15T15:19:38;111.88;;;48.55;;
28623;SDS011;15813;46.932;19.658;2022-11-15T15:22:04;116.53;;;52.20;;
28623;SDS011;15813;46.932;19.658;2022-11-15T15:24:30;117.75;;;50.90;;
28623;SDS011;15813;46.932;19.658;2022-11-15T15:26:55;123.05;;;50.95;;
28623;SDS011;15813;46.932;19.658;2022-11-15T15:29:20;127.80;;;54.80;;
28623;SDS011;15813;46.932;19.658;2022-11-15T15:31:46;116.95;;;51.63;;
28623;SDS011;15813;46.932;19.658;2022-11-15T15:34:11;114.13;;;51.42;;
28623;SDS011;15813;46.932;19.658;2022-11-15T15:36:36;120.25;;;56.20;;
28623;SDS011;15813;46.932;19.658;2022-11-15T15:39:02;113.20;;;50.40;;
28623;SDS011;15813;46.932;19.658;2022-11-15T15:41:27;118.00;;;51.72;;
28623;SDS011;15813;46.932;19.658;2022-11-15T15:43:52;131.80;;;50.97;;
28623;SDS011;15813;46.932;19.658;2022-11-15T15:46:18;120.95;;;51.05;;
28623;SDS011;15813;46.932;19.658;2022-11-15T15:48:45;110.60;;;50.17;;
28623;SDS011;15813;46.932;19.658;2022-11-15T15:51:10;182.27;;;77.10;;
28623;SDS011;15813;46.932;19.658;2022-11-15T15:53:36;120.85;;;54.38;;
28623;SDS011;15813;46.932;19.658;2022-11-15T15:56:01;150.23;;;60.42;;
28623;SDS011;15813;46.932;19.658;2022-11-15T15:58:27;128.60;;;54.55;;
28623;SDS011;15813;46.932;19.658;2022-11-15T16:00:52;121.47;;;51.20;;
28623;SDS011;15813;46.932;19.658;2022-11-15T16:03:17;124.88;;;53.58;;
28623;SDS011;15813;46.932;19.658;2022-11-15T16:05:43;133.90;;;55.58;;